Flight Track Log - Related Links

Times and Time Zones

All times are in EDT time to prevent confusion due to time zone crossing. See the AFL1004 flight status page for this flight to view local times or setup timezone preferences in your user account.

Time Position Orientation Groundspeed Altitude Reporting Facility
EDT Latitude Longitude Course Direction KTS MPH feet Rate Location/Type
Wed 10:50:00 AM 55.9615 36.7205 271° West  Level Estimated
Wed 10:51:00 AM 55.9614 36.5648 270° West  Level Estimated
Wed 10:52:00 AM 55.9612 36.4091 270° West  Level Estimated
Wed 10:53:00 AM 55.9607 36.2535 270° West  Level Estimated
Wed 10:54:00 AM 55.9600 36.0978 270° West  Level Estimated
Wed 10:55:00 AM 55.9592 35.9421 270° West  Level Estimated
Wed 10:56:00 AM 55.9582 35.7865 269° West  Level Estimated
Wed 10:57:00 AM 55.9569 35.6308 269° West  Level Estimated
Wed 10:58:00 AM 55.9555 35.4752 269° West  Level Estimated
Wed 10:59:00 AM 55.9538 35.3196 269° West  Level Estimated
Wed 11:00:00 AM 55.9520 35.1640 269° West  Level Estimated
Wed 11:01:00 AM 55.9500 35.0084 269° West  Level Estimated
Wed 11:02:00 AM 55.9478 34.8528 269° West  Level Estimated
Wed 11:03:00 AM 55.9453 34.6972 268° West  Level Estimated
Wed 11:04:00 AM 55.9427 34.5417 268° West  Level Estimated
Wed 11:05:00 AM 55.9399 34.3862 268° West  Level Estimated
Wed 11:06:00 AM 55.9369 34.2307 268° West  Level Estimated
Wed 11:07:00 AM 55.9337 34.0752 268° West  Level Estimated
Wed 11:08:00 AM 55.9306 33.9327 268° West  Level Estimated
Wed 11:09:00 AM 55.9273 33.7903 268° West  Level Estimated
Wed 11:10:00 AM 55.9239 33.6478 268° West  Level Estimated
Wed 11:11:00 AM 55.9203 33.5054 267° West  Level Estimated
Wed 11:12:00 AM 55.9165 33.3630 267° West  Level Estimated
Wed 11:13:00 AM 55.9126 33.2207 267° West  Level Estimated
Wed 11:14:00 AM 55.9085 33.0784 267° West  Level Estimated
Wed 11:15:00 AM 55.9042 32.9361 267° West  Level Estimated
Wed 11:16:00 AM 55.8998 32.7938 267° West  Level Estimated
Wed 11:17:00 AM 55.8952 32.6516 267° West  Level Estimated
Wed 11:18:00 AM 55.8905 32.5093 267° West  Level Estimated
Wed 11:19:00 AM 55.8856 32.3672 267° West  Level Estimated
Wed 11:19:12 AM 55.7393 33.0596 262° West 383 441 34,000  Level FlightAware ADS-B
Wed 11:24:13 AM 55.5773 30.7985 266° West 380 437 34,000  Level FlightAware ADS-B
Wed 11:25:13 AM 55.5689 30.6134 265° West 382 440 34,000  Level FlightAware ADS-B
Wed 11:26:11 AM 55.5602 30.4347 265° West 383 441 34,000  Level FlightAware ADS-B
Wed 11:27:14 AM 55.5508 30.2404 265° West 383 441 34,000  Level FlightAware ADS-B
Wed 11:28:13 AM 55.5415 30.0531 265° West 385 443 34,000  Level FlightAware ADS-B
Wed 11:29:14 AM 55.5317 29.8673 265° West 384 442 34,000  Level FlightAware ADS-B
Wed 11:30:13 AM 55.5218 29.6813 265° West 384 442 34,000  Level FlightAware ADS-B
Wed 11:31:13 AM 55.5115 29.4957 265° West 384 442 34,000  Level FlightAware ADS-B
Wed 11:32:14 AM 55.5010 29.3070 264° West 384 442 34,000  Level FlightAware ADS-B
Wed 11:33:13 AM 55.4905 29.1271 264° West 386 444 34,000  Level FlightAware ADS-B
Wed 11:34:13 AM 55.4789 28.9333 264° West 386 444 34,000  Level FlightAware ADS-B
Wed 11:35:13 AM 55.4675 28.7475 264° West 386 444 34,000  Level FlightAware ADS-B
Wed 11:36:14 AM 55.4557 28.5596 264° West 385 443 34,000  Level FlightAware ADS-B
Wed 11:37:14 AM 55.4492 28.4590 263° West 385 443 34,000  Level FlightAware ADS-B
Wed 11:38:13 AM 55.4314 28.1882 263° West 383 441 34,000  Level FlightAware ADS-B
Wed 11:39:14 AM 55.4192 28.0067 263° West 383 441 34,000  Level FlightAware ADS-B
Wed 11:40:13 AM 55.4071 27.8300 263° West 381 438 34,000  Level FlightAware ADS-B
Wed 11:41:14 AM 55.3935 27.6364 263° West 382 440 34,000  Level FlightAware ADS-B
Wed 11:42:13 AM 55.3801 27.4501 263° West 385 443 34,000  Level FlightAware ADS-B
Wed 11:43:14 AM 55.3663 27.2633 263° West 387 445 34,000  Level FlightAware ADS-B
Wed 11:44:14 AM 55.3523 27.0758 262° West 390 449 34,000  Level FlightAware ADS-B
Wed 11:45:13 AM 55.3382 26.8919 262° West 391 450 34,000  Level FlightAware ADS-B
Wed 11:46:13 AM 55.3235 26.7048 262° West 394 453 34,000  Level FlightAware ADS-B
Wed 11:47:13 AM 55.3082 26.5138 262° West 396 456 34,000  Level FlightAware ADS-B
Wed 11:48:14 AM 55.2924 26.3228 262° West 396 456 34,000  Level FlightAware ADS-B
Wed 11:48:51 AM 55.2819 26.1965 262° West 396 456 34,000  Level FlightAware ADS-B (EPSY / SZY)
Wed 11:49:32 AM 55.2715 26.0723 262° West 395 455 34,000  Level FlightAware ADS-B
Wed 11:50:10 AM 55.2610 25.9460 262° West 394 453 34,000  Level FlightAware ADS-B (EPSY / SZY)
Wed 11:50:42 AM 55.2527 25.8487 261° West 393 452 34,000  Level FlightAware ADS-B (EPSY / SZY)
Wed 11:51:15 AM 55.2441 25.7506 261° West 392 451 34,000  Level FlightAware ADS-B
Wed 11:51:50 AM 55.2340 25.6363 261° West 391 450 34,000  Level FlightAware ADS-B (EPSY / SZY)
Wed 11:52:32 AM 55.2232 25.5154 261° West 390 449 34,000  Level FlightAware ADS-B
Wed 11:53:08 AM 55.2120 25.3900 261° West 391 450 34,000  Level FlightAware ADS-B (EPSY / SZY)
Wed 11:53:40 AM 55.2030 25.2921 261° West 392 451 34,000  Level FlightAware ADS-B (EPSY / SZY)
Wed 11:54:10 AM 55.1942 25.1971 261° West 392 451 34,000  Level FlightAware ADS-B (EPSY / SZY)
Wed 11:54:40 AM 55.1858 25.1063 261° West 392 451 34,000  Level FlightAware ADS-B (EPSY / SZY)
Wed 11:55:11 AM 55.1765 25.0063 261° West 393 452 34,000  Level FlightAware ADS-B (EPSY / SZY)
Wed 11:55:49 AM 55.1655 24.8896 261° West 392 451 34,000  Level FlightAware ADS-B (EPSY / SZY)
Wed 11:56:19 AM 55.1563 24.7935 261° West 392 451 34,000  Level FlightAware ADS-B (EPSY / SZY)
Wed 11:56:52 AM 55.1466 24.6918 260° West 391 450 34,000  Level FlightAware ADS-B (EPSY / SZY)
Wed 11:57:22 AM 55.1374 24.5969 260° West 390 449 34,000  Level FlightAware ADS-B (EPSY / SZY)
Wed 11:58:06 AM 55.1244 24.4622 260° West 389 448 34,000  Level FlightAware ADS-B (EPSY / SZY)
Wed 11:58:37 AM 55.1152 24.3696 260° West 388 447 34,000  Level FlightAware ADS-B (EPSY / SZY)
Wed 11:59:07 AM 55.1059 24.2772 260° West 387 445 34,000  Level FlightAware ADS-B (EPSY / SZY)
Wed 11:59:47 AM 55.0936 24.1539 260° West 385 443 34,000  Level FlightAware ADS-B (EPSY / SZY)
Wed 12:00:32 PM 55.0803 24.0219 260° West 385 443 34,000  Level FlightAware ADS-B
Wed 12:01:09 PM 55.0679 23.9023 260° West 386 444 34,000  Level FlightAware ADS-B (EPSY / SZY)
Wed 12:01:59 PM 55.0518 23.7482 260° West 388 447 34,000  Level FlightAware ADS-B (EPSY / SZY)
Wed 12:02:29 PM 55.0421 23.6564 260° West 390 449 34,000 -83 Level FlightAware ADS-B (EPSY / SZY)
Wed 12:03:11 PM 55.0285 23.5288 260° West 389 448 33,900 -500 Descending FlightAware ADS-B (EPSY / SZY)
Wed 12:03:41 PM 55.0186 23.4380 259° West 372 428 33,400 -1,477 Descending FlightAware ADS-B (EPSY / SZY)
Wed 12:04:16 PM 55.0083 23.3410 260° West 377 434 32,300 -2,083 Descending FlightAware ADS-B
Wed 12:04:53 PM 54.9960 23.2274 259° West 370 426 30,900 -2,211 Descending FlightAware ADS-B (EPSY / SZY)
Wed 12:05:32 PM 54.9840 23.1182 259° West 365 420 29,500 -2,417 Descending FlightAware ADS-B
Wed 12:06:05 PM 54.9728 23.0174 259° West 363 418 28,000 -2,667 Descending FlightAware ADS-B (EPSY / SZY)
Wed 12:06:35 PM 54.9633 22.9330 259° West 358 412 26,700 -2,500 Descending FlightAware ADS-B (EPSY / SZY)
Wed 12:07:05 PM 54.9537 22.8473 259° West 353 406 25,500 -2,400 Descending FlightAware ADS-B (EPSY / SZY)
Wed 12:07:35 PM 54.9454 22.7660 265° West 344 396 24,300 -2,032 Descending FlightAware ADS-B (EPSY / SZY)
Wed 12:08:07 PM 54.9455 22.6817 271° West 329 379 23,400 -1,839 Descending FlightAware ADS-B (EPSY / SZY)
Wed 12:08:37 PM 54.9463 22.6036 271° West 324 373 22,400 -1,967 Descending FlightAware ADS-B (EPSY / SZY)
Wed 12:09:08 PM 54.9472 22.5253 271° West 320 368 21,400 -1,869 Descending FlightAware ADS-B (EPSY / SZY)
Wed 12:09:38 PM 54.9480 22.4477 271° West 316 364 20,500 -1,905 Descending FlightAware ADS-B (EPSY / SZY)
Wed 12:10:11 PM 54.9487 22.3674 271° West 313 360 19,400 -1,800 Descending FlightAware ADS-B
Wed 12:10:48 PM 54.9496 22.2732 271° West 310 357 18,400 -1,739 Descending FlightAware ADS-B (EPSY / SZY)
Wed 12:11:20 PM 54.9503 22.1933 271° West 308 354 17,400 -1,742 Descending FlightAware ADS-B (EPSY / SZY)
Wed 12:11:50 PM 54.9509 22.1175 271° West 307 353 16,600 -1,775 Descending FlightAware ADS-B (EPSY / SZY)
Wed 12:12:31 PM 54.9516 22.0184 271° West 305 351 15,300 -1,833 Descending FlightAware ADS-B (EPSY / SZY)
Wed 12:13:02 PM 54.9521 21.9403 271° West 304 350 14,400 -1,726 Descending FlightAware ADS-B (EPSY / SZY)
Wed 12:13:44 PM 54.9526 21.8394 271° West 301 346 13,200 -1,750 Descending FlightAware ADS-B (EPSY / SZY)
Wed 12:14:14 PM 54.9529 21.7676 271° West 298 343 12,300 -1,784 Descending FlightAware ADS-B (EPSY / SZY)
Wed 12:14:58 PM 54.9533 21.6631 270° West 291 335 11,000 -1,622 Descending FlightAware ADS-B (EPSY / SZY)
Wed 12:15:28 PM 54.9536 21.5930 270° West 283 326 10,300 -1,100 Descending FlightAware ADS-B (EPSY / SZY)
Wed 12:15:58 PM 54.9538 21.5291 270° West 261 300 9,900 -1,038 Descending FlightAware ADS-B (EPSY / SZY)
Wed 12:16:20 PM 54.9538 21.4840 270° West 253 291 9,400 -1,429 Descending FlightAware ADS-B (EPSY / SZY)
Wed 12:16:40 PM 54.9539 21.4422 270° West 251 289 8,900 -1,500 Descending FlightAware ADS-B (EPSY / SZY)
Wed 12:17:00 PM 54.9540 21.4041 270° West 246 283 8,400 -1,650 Descending FlightAware ADS-B (EPSY / SZY)
Wed 12:17:20 PM 54.9540 21.3633 270° West 244 281 7,800 -1,833 Descending FlightAware ADS-B (EPSY / SZY)
Wed 12:17:36 PM 54.9540 21.3338 270° West 244 281 7,300 -1,571 Descending FlightAware ADS-B (EPSY / SZY)
Wed 12:18:02 PM 54.9541 21.2860 270° West 240 276 6,700 -1,437 Descending FlightAware ADS-B (EPSY / SZY)
Wed 12:18:47 PM 54.9541 21.1970 270° West 230 265 5,600 -1,467 Descending FlightAware ADS-B (EPSY / SZY)
Wed 12:21:00 PM 54.9224 20.8937 260° West  Level Estimated

Login

Don't have an account? Register now (free) for customized features, flight alerts, and more!